createdAt,value
2019-04-05T00:01:41.383Z,14.40
2019-04-05T00:04:09.174Z,14.20
2019-04-05T00:06:37.424Z,13.83
2019-04-05T00:09:06.772Z,13.98
2019-04-05T00:11:34.565Z,13.58
2019-04-05T00:14:02.834Z,12.68
2019-04-05T00:16:32.536Z,13.98
2019-04-05T00:19:00.470Z,13.03
2019-04-05T00:21:28.323Z,14.75
2019-04-05T00:23:56.209Z,14.25
2019-04-05T00:26:26.076Z,14.07
2019-04-05T00:28:54.078Z,15.68
2019-04-05T00:31:22.214Z,14.98
2019-04-05T00:33:49.928Z,12.88
2019-04-05T00:36:17.764Z,14.40
2019-04-05T00:38:47.095Z,12.50
2019-04-05T00:41:15.126Z,14.10
2019-04-05T00:43:43.167Z,13.95
2019-04-05T00:46:12.370Z,14.38
2019-04-05T00:48:40.233Z,13.88
2019-04-05T00:51:13.936Z,12.50
2019-04-05T00:53:42.140Z,13.93
2019-04-05T00:56:11.296Z,13.45
2019-04-05T00:58:40.469Z,13.62
2019-04-05T01:01:09.069Z,11.70
2019-04-05T01:03:37.150Z,13.20
2019-04-05T01:06:05.584Z,14.18
2019-04-05T01:08:35.036Z,14.05
2019-04-05T01:11:02.967Z,13.08
2019-04-05T01:13:30.731Z,12.95
2019-04-05T01:15:58.723Z,12.18
2019-04-05T01:18:27.279Z,13.45
2019-04-05T01:21:00.877Z,15.00
2019-04-05T01:23:29.199Z,14.07
2019-04-05T01:26:02.656Z,13.83
2019-04-05T01:28:30.764Z,13.70
2019-04-05T01:30:58.671Z,13.48
2019-04-05T01:33:26.878Z,14.33
2019-04-05T01:35:54.719Z,14.05
2019-04-05T01:38:22.528Z,14.00
2019-04-05T01:40:50.423Z,14.85
2019-04-05T01:43:18.344Z,14.33
2019-04-05T01:45:53.939Z,14.78
2019-04-05T01:48:22.587Z,14.85
2019-04-05T01:50:52.688Z,14.20
2019-04-05T01:53:22.199Z,14.80
2019-04-05T01:55:50.198Z,14.28
2019-04-05T01:58:18.082Z,15.78
2019-04-05T02:00:52.862Z,16.00
2019-04-05T02:03:20.835Z,15.35
2019-04-05T02:05:48.740Z,15.13
2019-04-05T02:08:16.795Z,14.93
2019-04-05T02:10:47.625Z,15.85
2019-04-05T02:13:15.869Z,15.00
2019-04-05T02:15:44.237Z,15.13
2019-04-05T02:18:12.193Z,14.33
2019-04-05T02:20:42.044Z,14.80
2019-04-05T02:23:11.234Z,15.03
2019-04-05T02:25:39.839Z,14.05
2019-04-05T02:28:07.787Z,13.72
2019-04-05T02:30:37.822Z,14.38
2019-04-05T02:33:05.675Z,14.58
2019-04-05T02:35:39.187Z,14.80
2019-04-05T02:38:07.435Z,14.35
2019-04-05T02:40:38.935Z,13.70
2019-04-05T02:43:10.853Z,14.18
2019-04-05T02:45:39.551Z,14.60
2019-04-05T02:48:10.219Z,13.20
2019-04-05T02:50:48.998Z,13.90
2019-04-05T02:53:19.024Z,15.70
2019-04-05T02:55:48.902Z,14.25
2019-04-05T02:58:18.029Z,14.80
2019-04-05T03:00:46.213Z,14.85
2019-04-05T03:03:16.012Z,14.87
2019-04-05T03:05:46.560Z,14.85
2019-04-05T03:08:16.471Z,15.50
2019-04-05T03:11:03.221Z,14.95
2019-04-05T03:13:37.579Z,15.75
2019-04-05T03:16:11.077Z,15.32
2019-04-05T03:18:42.418Z,15.80
2019-04-05T03:21:20.005Z,14.55
2019-04-05T03:23:50.040Z,15.25
2019-04-05T03:26:23.926Z,14.30
2019-04-05T03:28:55.579Z,15.75
2019-04-05T03:31:25.532Z,15.68
2019-04-05T03:33:55.010Z,15.75
2019-04-05T03:36:23.243Z,14.28
2019-04-05T03:38:51.863Z,16.37
2019-04-05T03:41:21.389Z,16.52
2019-04-05T03:43:50.798Z,16.55
2019-04-05T03:46:20.992Z,18.35
2019-04-05T03:48:49.485Z,17.12
2019-04-05T03:51:18.701Z,16.75
2019-04-05T03:53:46.745Z,17.42
2019-04-05T03:56:20.940Z,17.20
2019-04-05T03:58:49.084Z,17.60
2019-04-05T04:01:18.555Z,17.42
2019-04-05T04:03:46.837Z,16.75
2019-04-05T04:06:16.028Z,17.77
2019-04-05T04:08:44.110Z,17.52
2019-04-05T04:11:17.290Z,17.67
2019-04-05T04:13:45.721Z,17.95
2019-04-05T04:16:14.552Z,17.87
2019-04-05T04:18:43.131Z,18.10
2019-04-05T04:21:45.351Z,18.57
2019-04-05T04:24:13.506Z,18.80
2019-04-05T04:26:42.031Z,19.00
2019-04-05T04:29:11.040Z,18.95
2019-04-05T04:31:39.738Z,18.70
2019-04-05T04:34:08.064Z,17.92
2019-04-05T04:36:35.962Z,18.27
2019-04-05T04:39:05.063Z,19.52
2019-04-05T04:41:33.164Z,19.23
2019-04-05T04:44:02.742Z,18.80
2019-04-05T04:46:32.308Z,19.30
2019-04-05T04:49:01.021Z,18.80
2019-04-05T04:51:29.679Z,18.35
2019-04-05T04:53:58.304Z,19.98
2019-04-05T04:56:26.918Z,19.17
2019-04-05T04:58:55.265Z,20.10
2019-04-05T05:01:24.784Z,19.87
2019-04-05T05:03:53.063Z,21.45
2019-04-05T05:06:21.750Z,20.68
2019-04-05T05:08:49.972Z,20.15
2019-04-05T05:11:18.257Z,20.88
2019-04-05T05:13:46.596Z,21.55
2019-04-05T05:16:14.913Z,21.87
2019-04-05T05:18:43.820Z,19.90
2019-04-05T05:21:12.673Z,20.77
2019-04-05T05:23:40.912Z,25.35
2019-04-05T05:26:14.448Z,21.52
2019-04-05T05:28:42.587Z,21.23
2019-04-05T05:31:13.145Z,21.25
2019-04-05T05:33:41.395Z,22.93
2019-04-05T05:36:10.766Z,22.15
2019-04-05T05:38:39.016Z,20.08
2019-04-05T05:41:08.853Z,19.37
2019-04-05T05:43:36.727Z,22.65
2019-04-05T05:46:08.827Z,19.27
2019-04-05T05:48:38.522Z,20.08
2019-04-05T05:51:06.538Z,20.72
2019-04-05T05:53:34.851Z,20.20
2019-04-05T05:56:06.295Z,19.77
2019-04-05T05:58:34.975Z,23.22
2019-04-05T06:01:02.858Z,17.92
2019-04-05T06:03:30.911Z,19.70
2019-04-05T06:06:04.561Z,18.42
2019-04-05T06:08:29.480Z,19.95
2019-04-05T06:10:58.232Z,19.25
2019-04-05T06:13:26.383Z,19.05
2019-04-05T06:15:56.209Z,19.20
2019-04-05T06:18:24.343Z,19.02
2019-04-05T06:20:53.072Z,18.45
2019-04-05T06:25:57.086Z,18.07
2019-04-05T06:28:25.345Z,18.17
2019-04-05T06:30:53.144Z,19.80
2019-04-05T06:33:30.979Z,18.17
2019-04-05T06:35:39.696Z,19.30
2019-04-05T06:35:50.736Z,17.45
2019-04-05T06:38:19.329Z,16.90
2019-04-05T06:40:47.089Z,16.73
2019-04-05T06:43:16.472Z,19.40
2019-04-05T06:45:44.461Z,19.07
2019-04-05T06:48:18.966Z,19.95
2019-04-05T06:50:47.323Z,18.20
2019-04-05T06:53:14.915Z,19.95
2019-04-05T06:55:42.881Z,20.85
2019-04-05T06:58:10.827Z,19.17
2019-04-05T07:00:39.063Z,19.50
2019-04-05T07:03:07.312Z,20.40
2019-04-05T07:05:35.150Z,19.30
2019-04-05T07:08:04.056Z,19.12
2019-04-05T07:10:32.109Z,20.00
2019-04-05T07:12:59.956Z,21.55
2019-04-05T07:15:27.895Z,18.62
2019-04-05T07:17:55.784Z,19.50
2019-04-05T07:20:23.922Z,17.85
2019-04-05T07:22:54.807Z,18.87
2019-04-05T07:25:22.684Z,19.55
2019-04-05T07:27:51.720Z,19.73
2019-04-05T07:30:19.851Z,19.20
2019-04-05T07:32:47.819Z,17.57
2019-04-05T07:35:17.271Z,17.35
2019-04-05T07:37:47.278Z,19.37
2019-04-05T07:40:17.921Z,18.77
2019-04-05T07:42:46.047Z,18.40
2019-04-05T07:45:14.890Z,17.80
2019-04-05T07:47:43.715Z,19.07
2019-04-05T07:50:12.244Z,17.98
2019-04-05T07:52:39.431Z,16.17
2019-04-05T07:55:09.182Z,17.40
2019-04-05T07:57:37.132Z,18.00
2019-04-05T08:00:08.729Z,18.20
2019-04-05T08:02:36.628Z,18.43
2019-04-05T08:05:06.431Z,17.97
2019-04-05T08:07:38.144Z,17.60
2019-04-05T08:10:07.466Z,16.57
2019-04-05T08:12:36.147Z,17.02
2019-04-05T08:15:05.632Z,18.27
2019-04-05T08:17:33.687Z,18.55
2019-04-05T08:20:01.477Z,19.42
2019-04-05T08:22:32.164Z,17.48
2019-04-05T08:24:59.240Z,17.67
2019-04-05T08:27:27.149Z,17.77
2019-04-05T08:29:57.016Z,17.95
2019-04-05T08:32:25.210Z,17.17
2019-04-05T08:34:53.176Z,16.67
2019-04-05T08:37:21.135Z,17.45
2019-04-05T08:39:49.019Z,19.15
2019-04-05T08:42:16.788Z,17.52
2019-04-05T08:44:44.632Z,16.67
2019-04-05T08:47:12.508Z,16.20
2019-04-05T08:49:40.275Z,16.65
2019-04-05T08:52:08.528Z,18.23
2019-04-05T08:54:37.105Z,17.45
2019-04-05T08:57:05.532Z,16.77
2019-04-05T08:59:33.448Z,16.12
2019-04-05T09:02:01.318Z,18.07
2019-04-05T09:04:30.121Z,15.60
2019-04-05T09:06:57.859Z,17.90
2019-04-05T09:09:26.321Z,18.25
2019-04-05T09:11:54.810Z,17.30
2019-04-05T09:14:22.525Z,17.25
2019-04-05T09:16:50.584Z,17.65
2019-04-05T09:19:23.977Z,18.07
2019-04-05T09:21:48.359Z,17.95
2019-04-05T09:24:17.336Z,17.20
2019-04-05T09:26:45.215Z,16.75
2019-04-05T09:29:13.157Z,17.23
2019-04-05T09:31:40.981Z,15.80
2019-04-05T09:34:09.755Z,15.28
2019-04-05T09:36:38.099Z,15.10
2019-04-05T09:39:13.650Z,15.03
2019-04-05T09:41:39.839Z,15.68
2019-04-05T09:44:07.739Z,14.80
2019-04-05T09:46:46.992Z,14.30
2019-04-05T09:49:08.907Z,13.48
2019-04-05T09:51:37.104Z,15.45
2019-04-05T09:54:05.008Z,14.53
2019-04-05T09:56:32.889Z,14.40
2019-04-05T09:59:02.531Z,14.13
2019-04-05T10:01:30.701Z,14.10
2019-04-05T10:03:58.816Z,15.28
2019-04-05T10:06:27.773Z,14.28
2019-04-05T10:08:55.859Z,14.93
2019-04-05T10:11:23.698Z,15.20
2019-04-05T10:13:51.384Z,15.15
2019-04-05T10:16:19.926Z,13.50
2019-04-05T10:18:48.142Z,15.68
2019-04-05T10:21:17.253Z,15.80
2019-04-05T10:23:45.076Z,15.35
2019-04-05T10:26:12.959Z,15.75
2019-04-05T10:28:41.334Z,14.15
2019-04-05T10:31:10.985Z,14.10
2019-04-05T10:33:39.019Z,14.20
2019-04-05T10:36:06.955Z,15.23
2019-04-05T10:38:34.734Z,14.20
2019-04-05T10:41:02.563Z,14.73
2019-04-05T10:43:31.318Z,15.10
2019-04-05T10:45:59.241Z,13.28
2019-04-05T10:48:28.244Z,15.60
2019-04-05T10:50:55.957Z,16.05
2019-04-05T10:53:23.977Z,15.83
2019-04-05T10:55:53.057Z,15.03
2019-04-05T10:58:20.965Z,17.05
2019-04-05T11:00:49.043Z,16.30
2019-04-05T11:03:16.847Z,16.10
2019-04-05T11:05:45.002Z,16.85
2019-04-05T11:08:12.834Z,16.52
2019-04-05T11:10:40.775Z,16.97
2019-04-05T11:13:09.793Z,17.62
2019-04-05T11:15:38.064Z,18.52
2019-04-05T11:18:07.255Z,17.45
2019-04-05T11:20:35.022Z,19.27
2019-04-05T11:23:03.379Z,18.48
2019-04-05T11:25:31.544Z,17.75
2019-04-05T11:27:59.552Z,18.23
2019-04-05T11:30:43.566Z,18.50
2019-04-05T11:33:12.288Z,18.25
2019-04-05T11:35:40.378Z,18.17
2019-04-05T11:38:08.415Z,16.20
2019-04-05T11:40:36.791Z,18.25
2019-04-05T11:43:05.833Z,17.45
2019-04-05T11:45:37.051Z,19.15
2019-04-05T11:48:06.207Z,17.57
2019-04-05T11:50:35.219Z,17.60
2019-04-05T11:53:05.648Z,16.93
2019-04-05T11:55:34.153Z,17.45
2019-04-05T11:58:04.348Z,17.75
2019-04-05T12:00:57.551Z,17.73
2019-04-05T12:03:30.648Z,16.75
2019-04-05T12:05:59.054Z,17.75
2019-04-05T12:08:29.141Z,17.60
2019-04-05T12:10:57.072Z,16.27
2019-04-05T12:13:24.957Z,15.95
2019-04-05T12:15:52.817Z,17.17
2019-04-05T12:18:21.906Z,16.32
2019-04-05T12:20:59.781Z,18.92
2019-04-05T12:23:20.823Z,17.20
2019-04-05T12:25:48.775Z,16.75
2019-04-05T12:28:23.504Z,16.52
2019-04-05T12:30:51.509Z,18.55
2019-04-05T12:33:27.571Z,18.90
2019-04-05T12:35:56.910Z,16.15
2019-04-05T12:38:32.433Z,17.40
2019-04-05T12:41:02.904Z,16.85
2019-04-05T12:43:31.539Z,18.85
2019-04-05T12:45:59.728Z,17.35
2019-04-05T12:48:28.033Z,17.87
2019-04-05T12:51:01.314Z,18.30
2019-04-05T12:53:33.817Z,18.05
2019-04-05T12:56:02.599Z,19.48
2019-04-05T12:58:36.448Z,17.55
2019-04-05T13:01:04.455Z,18.82
2019-04-05T13:03:33.375Z,18.90
2019-04-05T13:06:01.733Z,17.00
2019-04-05T13:08:31.659Z,17.80
2019-04-05T13:11:00.794Z,17.92
2019-04-05T13:13:30.771Z,17.05
2019-04-05T13:15:59.551Z,17.30
2019-04-05T13:18:31.612Z,16.60
2019-04-05T13:21:00.182Z,16.52
2019-04-05T13:23:31.107Z,15.65
2019-04-05T13:25:59.049Z,16.30
2019-04-05T13:28:26.911Z,16.90
2019-04-05T13:30:55.664Z,16.37
2019-04-05T13:33:24.071Z,17.73
2019-04-05T13:35:52.494Z,17.62
2019-04-05T13:38:29.823Z,16.60
2019-04-05T13:41:01.277Z,16.60
2019-04-05T13:43:31.795Z,16.17
2019-04-05T13:45:59.534Z,19.30
2019-04-05T13:48:27.429Z,17.25
2019-04-05T13:50:55.644Z,14.98
2019-04-05T13:53:24.800Z,16.73
2019-04-05T13:55:52.659Z,15.58
2019-04-05T13:58:22.157Z,15.60
2019-04-05T14:00:49.992Z,16.23
2019-04-05T14:03:18.582Z,15.50
2019-04-05T14:05:54.010Z,15.38
2019-04-05T14:08:20.187Z,16.05
2019-04-05T14:10:47.888Z,14.75
2019-04-05T14:13:15.947Z,14.53
2019-04-05T14:15:43.649Z,13.90
2019-04-05T14:18:14.565Z,13.38
2019-04-05T14:20:42.793Z,13.50
2019-04-05T14:23:10.735Z,14.25
2019-04-05T14:25:39.731Z,14.20
2019-04-05T14:28:07.658Z,12.93
2019-04-05T14:30:35.480Z,13.35
2019-04-05T14:33:05.802Z,13.28
2019-04-05T14:35:33.526Z,15.65
2019-04-05T14:38:01.207Z,14.90
2019-04-05T14:40:32.848Z,14.58
2019-04-05T14:43:00.541Z,14.55
2019-04-05T14:45:28.427Z,12.58
2019-04-05T14:47:58.603Z,14.10
2019-04-05T14:50:28.317Z,14.33
2019-04-05T14:53:00.957Z,14.75
2019-04-05T14:55:27.614Z,13.50
2019-04-05T14:57:59.993Z,14.33
2019-04-05T15:00:27.983Z,11.95
2019-04-05T15:02:55.774Z,12.58
2019-04-05T15:05:23.658Z,13.45
2019-04-05T15:07:52.036Z,13.55
2019-04-05T15:10:25.016Z,13.60
2019-04-05T15:12:51.639Z,13.13
2019-04-05T15:15:22.212Z,13.65
2019-04-05T15:17:50.330Z,14.00
2019-04-05T15:20:21.140Z,12.90
2019-04-05T15:22:48.947Z,13.55
2019-04-05T15:25:20.108Z,13.93
2019-04-05T15:27:47.194Z,14.68
2019-04-05T15:30:15.323Z,13.48
2019-04-05T15:32:43.699Z,14.83
2019-04-05T15:35:11.794Z,14.93
2019-04-05T15:37:39.831Z,13.85
2019-04-05T15:40:10.542Z,15.00
2019-04-05T15:42:38.417Z,15.13
2019-04-05T15:45:07.827Z,16.95
2019-04-05T15:47:36.787Z,16.70
2019-04-05T15:50:05.910Z,15.55
2019-04-05T15:52:36.672Z,15.85
2019-04-05T15:55:04.822Z,15.40
2019-04-05T15:57:34.233Z,16.27
2019-04-05T16:00:04.811Z,16.70
2019-04-05T16:02:34.191Z,17.35
2019-04-05T16:05:02.084Z,18.35
2019-04-05T16:07:30.117Z,15.83
2019-04-05T16:09:58.064Z,15.43
2019-04-05T16:12:27.078Z,16.57
2019-04-05T16:14:57.067Z,16.70
2019-04-05T16:17:26.121Z,18.27
2019-04-05T16:19:54.182Z,16.55
2019-04-05T16:22:31.299Z,16.07
2019-04-05T16:24:54.238Z,18.37
2019-04-05T16:27:22.147Z,18.05
2019-04-05T16:29:49.997Z,18.48
2019-04-05T16:32:17.849Z,16.32
2019-04-05T16:34:45.730Z,17.30
2019-04-05T16:37:13.542Z,16.60
2019-04-05T16:39:41.440Z,16.37
2019-04-05T16:42:10.323Z,19.40
2019-04-05T16:44:38.523Z,17.12
2019-04-05T16:47:19.247Z,18.23
2019-04-05T16:50:02.148Z,18.45
2019-04-05T16:52:44.111Z,19.70
2019-04-05T16:55:04.443Z,22.07
2019-04-05T16:57:32.263Z,19.75
2019-04-05T17:00:01.770Z,21.23
2019-04-05T17:02:31.286Z,20.40
2019-04-05T17:04:59.047Z,21.85
2019-04-05T17:07:27.472Z,21.80
2019-04-05T17:09:55.210Z,21.27
2019-04-05T17:12:23.058Z,21.95
2019-04-05T17:14:52.294Z,20.70
2019-04-05T17:17:20.585Z,21.30
2019-04-05T17:19:48.710Z,17.70
2019-04-05T17:22:16.882Z,18.27
2019-04-05T17:24:44.864Z,18.10
2019-04-05T17:27:12.716Z,18.65
2019-04-05T17:29:40.698Z,18.07
2019-04-05T17:32:10.139Z,19.50
2019-04-05T17:34:38.434Z,18.60
2019-04-05T17:37:06.196Z,19.57
2019-04-05T17:39:34.092Z,20.97
2019-04-05T17:42:02.055Z,20.82
2019-04-05T17:44:30.174Z,21.23
2019-04-05T17:46:58.112Z,20.95
2019-04-05T17:49:26.062Z,21.25
2019-04-05T17:51:54.305Z,19.85
2019-04-05T17:54:22.009Z,22.20
2019-04-05T17:56:50.715Z,21.57
2019-04-05T17:59:18.850Z,20.48
2019-04-05T18:01:47.021Z,22.87
2019-04-05T18:04:14.738Z,22.07
2019-04-05T18:06:42.667Z,23.65
2019-04-05T18:09:10.548Z,26.68
2019-04-05T18:11:39.567Z,23.62
2019-04-05T18:14:07.568Z,22.17
2019-04-05T18:16:35.293Z,22.62
2019-04-05T18:19:03.718Z,22.07
2019-04-05T18:21:31.799Z,24.85
2019-04-05T18:23:59.870Z,25.02
2019-04-05T18:26:30.395Z,23.60
2019-04-05T18:28:58.286Z,21.65
2019-04-05T18:31:30.196Z,23.30
2019-04-05T18:33:58.127Z,22.10
2019-04-05T18:36:28.161Z,21.52
2019-04-05T18:38:55.899Z,23.07
2019-04-05T18:41:27.954Z,20.02
2019-04-05T18:43:56.133Z,20.90
2019-04-05T18:46:24.145Z,20.27
2019-04-05T18:48:51.980Z,18.65
2019-04-05T18:51:19.857Z,19.27
2019-04-05T18:53:47.674Z,19.07
2019-04-05T18:56:49.028Z,20.62
2019-04-05T18:59:17.610Z,20.70
2019-04-05T19:01:45.753Z,19.57
2019-04-05T19:04:14.782Z,19.62
2019-04-05T19:06:42.646Z,18.90
2019-04-05T19:09:12.067Z,18.25
2019-04-05T19:11:40.747Z,20.02
2019-04-05T19:14:09.952Z,18.37
2019-04-05T19:16:37.663Z,18.90
2019-04-05T19:19:05.674Z,18.25
2019-04-05T19:21:33.346Z,17.70
2019-04-05T19:24:01.396Z,17.05
2019-04-05T19:26:30.151Z,17.57
2019-04-05T19:28:57.887Z,18.90
2019-04-05T19:49:00.017Z,20.55
2019-04-05T19:51:28.805Z,21.07
2019-04-05T19:54:01.445Z,27.62
2019-04-05T19:56:29.406Z,29.37
2019-04-05T19:58:57.345Z,33.08
2019-04-05T20:01:25.162Z,35.75
2019-04-05T20:03:53.083Z,39.88
2019-04-05T20:06:21.798Z,37.10
2019-04-05T20:08:49.629Z,36.68
2019-04-05T20:11:18.092Z,35.95
2019-04-05T20:13:46.124Z,32.45
2019-04-05T20:16:14.018Z,35.78
2019-04-05T20:18:43.220Z,34.95
2019-04-05T20:21:16.027Z,33.95
2019-04-05T20:23:47.696Z,35.03
2019-04-05T20:26:13.705Z,37.15
2019-04-05T20:28:41.553Z,34.18
2019-04-05T20:31:12.085Z,36.65
2019-04-05T20:33:44.320Z,37.80
2019-04-05T20:36:13.366Z,40.45
2019-04-05T20:38:41.068Z,39.50
2019-04-05T20:41:09.115Z,41.13
2019-04-05T20:43:37.336Z,39.78
2019-04-05T20:46:09.348Z,39.85
2019-04-05T20:48:37.152Z,39.03
2019-04-05T20:51:08.023Z,38.53
2019-04-05T20:53:39.500Z,38.60
2019-04-05T20:56:08.579Z,38.08
2019-04-05T20:58:36.438Z,35.95
2019-04-05T21:01:07.539Z,37.48
2019-04-05T21:03:38.769Z,35.48
2019-04-05T21:06:07.838Z,33.63
2019-04-05T21:08:35.618Z,33.50
2019-04-05T21:11:03.778Z,30.12
2019-04-05T21:13:32.276Z,25.80
2019-04-05T21:16:05.916Z,24.45
2019-04-05T21:18:33.960Z,25.70
2019-04-05T21:21:06.096Z,28.92
2019-04-05T21:23:33.891Z,29.63
2019-04-05T21:26:01.941Z,20.90
2019-04-05T21:28:30.061Z,23.92
2019-04-05T21:31:01.664Z,23.85
2019-04-05T21:33:29.500Z,24.10
2019-04-05T21:35:58.692Z,25.43
2019-04-05T21:38:26.453Z,22.87
2019-04-05T21:40:56.346Z,24.32
2019-04-05T21:43:25.113Z,27.82
2019-04-05T21:45:56.005Z,26.23
2019-04-05T21:48:23.687Z,25.62
2019-04-05T21:50:52.761Z,26.27
2019-04-05T21:53:20.996Z,27.40
2019-04-05T21:55:50.141Z,25.00
2019-04-05T21:58:18.036Z,25.50
2019-04-05T22:00:49.319Z,26.57
2019-04-05T22:03:18.890Z,21.52
2019-04-05T22:05:47.332Z,20.02
2019-04-05T22:08:16.503Z,20.65
2019-04-05T22:10:44.264Z,21.30
2019-04-05T22:13:12.193Z,21.10
2019-04-05T22:15:40.924Z,20.50
2019-04-05T22:18:08.640Z,19.90
2019-04-05T22:20:36.603Z,19.62
2019-04-05T22:23:05.619Z,21.95
2019-04-05T22:25:33.924Z,21.50
2019-04-05T22:28:01.772Z,20.68
2019-04-05T22:30:29.573Z,19.48
2019-04-05T22:32:57.576Z,20.65
2019-04-05T22:35:25.355Z,20.88
2019-04-05T22:37:54.019Z,23.30
2019-04-05T22:40:21.941Z,21.68
2019-04-05T22:42:50.360Z,23.32
2019-04-05T22:45:18.137Z,25.15
2019-04-05T22:47:46.075Z,27.00
2019-04-05T22:50:14.164Z,29.70
2019-04-05T22:52:42.155Z,26.75
2019-04-05T22:55:12.123Z,28.92
2019-04-05T22:57:40.307Z,27.48
2019-04-05T23:00:08.684Z,23.20
2019-04-05T23:02:38.540Z,20.55
2019-04-05T23:05:06.763Z,17.25
2019-04-05T23:07:35.054Z,15.13
2019-04-05T23:10:04.046Z,17.82
2019-04-05T23:12:33.295Z,16.80
2019-04-05T23:15:01.138Z,17.52
2019-04-05T23:17:30.205Z,17.92
2019-04-05T23:19:58.081Z,17.70
2019-04-05T23:22:25.904Z,18.85
2019-04-05T23:24:53.589Z,21.57
2019-04-05T23:27:22.469Z,22.85
2019-04-05T23:29:51.270Z,18.85
2019-04-05T23:32:19.519Z,24.70
2019-04-05T23:34:47.218Z,22.95
2019-04-05T23:37:15.131Z,24.32
2019-04-05T23:39:43.094Z,22.62
2019-04-05T23:42:11.304Z,23.90
2019-04-05T23:44:39.623Z,20.95
2019-04-05T23:47:07.493Z,18.95
2019-04-05T23:49:35.425Z,17.65
2019-04-05T23:52:03.236Z,18.37
2019-04-05T23:54:29.727Z,19.07
2019-04-05T23:56:57.735Z,18.50
2019-04-05T23:59:25.676Z,18.85
